Amherst, New Hampshire
Current Conditions -  °F | °C
As of 9:51 AM on Thursday 18 Dec 2014 (Local Time) from KASH Reporting Station
Few Clouds Few Clouds  
Wind Chill: 34°   Ceiling: Unl
Heat Index: 40°   Visibility: 10mi
Dew Point: 30°   Wind: 8mph
Humidity: 68%   Direction: 300°WNW
Pressure: 29.79"   Gusts: NA
Location:  42.86°N, 71.63°W
Report Text: KASH 181451Z 30007KT 10SM FEW070 04/M01 A2979 RMK AO2 51016 T00441011 SLP339
Loading
Personal Weather Stations






























Interactive Weather Map New forecast layout! Learn more

10-Day Weather Forecast

Advertisements
Track Severe Weather on mobile